createdAt,value
2022-12-25T00:02:14.078Z,100762.81
2022-12-25T00:04:41.671Z,100768.22
2022-12-25T00:07:09.182Z,100772.78
2022-12-25T00:09:36.673Z,100776.47
2022-12-25T00:12:04.293Z,100779.56
2022-12-25T00:14:33.377Z,100774.38
2022-12-25T00:17:00.856Z,100769.53
2022-12-25T00:19:28.346Z,100764.38
2022-12-25T00:21:55.848Z,100754.91
2022-12-25T00:24:23.298Z,100762.91
2022-12-25T00:26:50.826Z,100739.84
2022-12-25T00:29:18.383Z,100757.72
2022-12-25T00:31:47.353Z,100751.28
2022-12-25T00:34:14.920Z,100745.50
2022-12-25T00:36:42.504Z,100739.97
2022-12-25T00:39:10.161Z,100729.38
2022-12-25T00:41:55.288Z,100730.63
2022-12-25T00:44:22.833Z,100725.31
2022-12-25T00:46:51.758Z,100722.34
2022-12-25T00:49:19.349Z,100729.00
2022-12-25T00:51:46.883Z,100726.97
2022-12-25T00:54:14.355Z,100725.34
2022-12-25T00:56:41.853Z,100723.66
2022-12-25T00:59:09.370Z,100719.34
2022-12-25T01:01:37.189Z,100725.69
2022-12-25T01:04:06.656Z,100724.19
2022-12-25T01:06:34.174Z,100722.75
2022-12-25T01:09:19.114Z,100736.72
2022-12-25T01:11:46.594Z,100731.47
2022-12-25T01:14:14.141Z,100730.69
2022-12-25T01:16:41.774Z,100740.75
2022-12-25T01:19:12.392Z,100740.38
2022-12-25T01:21:40.047Z,100734.13
2022-12-25T01:24:07.982Z,100738.44
2022-12-25T01:26:35.491Z,100753.16
2022-12-25T01:29:03.553Z,100754.69
2022-12-25T01:31:31.106Z,100758.25
2022-12-25T01:33:58.623Z,100766.47
2022-12-25T01:36:27.572Z,100759.06
2022-12-25T01:38:55.145Z,100754.38
2022-12-25T01:41:23.206Z,100776.97
2022-12-25T01:43:57.865Z,100761.72
2022-12-25T01:46:25.480Z,100774.28
2022-12-25T01:48:53.003Z,100787.34
2022-12-25T01:51:22.073Z,100783.63
2022-12-25T01:53:50.940Z,100774.25
2022-12-25T01:56:18.441Z,100772.03
2022-12-25T01:58:45.992Z,100770.63
2022-12-25T02:01:13.634Z,100784.69
2022-12-25T02:03:42.785Z,100779.44
2022-12-25T02:06:10.356Z,100775.72
2022-12-25T02:08:37.826Z,100774.91
2022-12-25T02:11:06.770Z,100770.97
2022-12-25T02:13:34.306Z,100765.00
2022-12-25T02:16:05.975Z,100758.97
2022-12-25T02:18:38.591Z,100742.88
2022-12-25T02:21:38.689Z,100751.56
2022-12-25T02:24:17.526Z,100748.19
2022-12-25T02:26:59.561Z,100749.84
2022-12-25T02:29:33.071Z,100756.84
2022-12-25T02:32:04.194Z,100753.25
2022-12-25T02:34:34.524Z,100763.72
2022-12-25T02:37:07.314Z,100752.03
2022-12-25T02:39:58.887Z,100758.50
2022-12-25T02:42:56.105Z,100774.41
2022-12-25T02:45:46.645Z,100768.41
2022-12-25T02:48:32.638Z,100771.34
2022-12-25T02:51:19.086Z,100771.88
2022-12-25T02:54:05.421Z,100770.34
2022-12-25T02:56:51.265Z,100764.53
2022-12-25T02:59:37.028Z,100771.50
2022-12-25T03:02:24.259Z,100764.22
2022-12-25T03:05:09.995Z,100739.25
2022-12-25T03:07:39.541Z,100747.03
2022-12-25T03:10:28.250Z,100755.03
2022-12-25T03:13:00.490Z,100755.56
2022-12-25T03:15:45.587Z,100742.28
2022-12-25T03:18:16.419Z,100741.75
2022-12-25T03:21:16.538Z,100737.16
2022-12-25T03:24:06.223Z,100734.44
2022-12-25T03:26:51.840Z,100730.88
2022-12-25T03:29:33.469Z,100721.16
2022-12-25T03:32:06.287Z,100724.31
2022-12-25T03:34:58.785Z,100710.03
2022-12-25T03:37:49.920Z,100687.06
2022-12-25T03:40:42.890Z,100700.34
2022-12-25T03:43:38.512Z,100715.03
2022-12-25T03:46:28.332Z,100702.28
2022-12-25T03:49:19.553Z,100698.19
2022-12-25T03:52:07.792Z,100697.47
2022-12-25T03:54:55.820Z,100688.50
2022-12-25T03:57:41.115Z,100689.19
2022-12-25T04:00:27.574Z,100682.69
2022-12-25T04:03:12.824Z,100690.41
2022-12-25T04:05:58.244Z,100696.75
2022-12-25T04:08:49.942Z,100704.91
2022-12-25T04:11:35.462Z,100717.03
2022-12-25T04:14:20.772Z,100706.91
2022-12-25T04:17:06.135Z,100705.66
2022-12-25T04:19:51.554Z,100706.13
2022-12-25T04:22:36.941Z,100704.00
2022-12-25T04:25:24.529Z,100693.34
2022-12-25T04:28:09.941Z,100687.47
2022-12-25T04:30:55.211Z,100679.47
2022-12-25T04:33:51.962Z,100675.53
2022-12-25T04:36:19.936Z,100700.84
2022-12-25T04:38:47.628Z,100701.31
2022-12-25T04:41:16.747Z,100699.06
2022-12-25T04:43:44.476Z,100701.59
2022-12-25T04:46:12.269Z,100700.22
2022-12-25T04:48:39.998Z,100710.66
2022-12-25T04:51:12.717Z,100713.75
2022-12-25T04:53:40.378Z,100708.63
2022-12-25T04:56:08.135Z,100713.16
2022-12-25T04:58:37.239Z,100709.75
2022-12-25T05:01:05.541Z,100716.34
2022-12-25T05:03:33.957Z,100706.50
2022-12-25T05:06:02.035Z,100697.00
2022-12-25T05:08:30.316Z,100708.75
2022-12-25T05:10:58.239Z,100703.88
2022-12-25T05:13:26.313Z,100701.25
2022-12-25T05:15:55.393Z,100706.41
2022-12-25T05:18:23.193Z,100705.47
2022-12-25T05:20:54.491Z,100695.91
2022-12-25T05:23:22.968Z,100697.97
2022-12-25T05:25:50.683Z,100703.47
2022-12-25T05:28:18.323Z,100702.19
2022-12-25T05:30:46.053Z,100695.00
2022-12-25T05:33:16.498Z,100677.75
2022-12-25T05:35:44.220Z,100702.53
2022-12-25T05:38:11.924Z,100683.53
2022-12-25T05:40:40.770Z,100689.97
2022-12-25T05:43:09.209Z,100695.09
2022-12-25T05:45:37.249Z,100691.91
2022-12-25T05:48:05.114Z,100694.22
2022-12-25T05:50:34.153Z,100697.91
2022-12-25T05:53:07.847Z,100703.19
2022-12-25T05:55:36.304Z,100686.75
2022-12-25T05:58:04.592Z,100674.41
2022-12-25T06:00:32.612Z,100667.66
2022-12-25T06:03:00.420Z,100670.16
2022-12-25T06:05:28.337Z,100661.63
2022-12-25T06:07:57.495Z,100668.44
2022-12-25T06:10:25.410Z,100665.50
2022-12-25T06:12:53.062Z,100674.13
2022-12-25T06:15:20.773Z,100669.97
2022-12-25T06:17:48.489Z,100680.91
2022-12-25T06:20:16.163Z,100670.22
2022-12-25T06:22:43.890Z,100675.25
2022-12-25T06:25:13.236Z,100679.94
2022-12-25T06:27:40.953Z,100667.88
2022-12-25T06:30:09.992Z,100670.16
2022-12-25T06:32:37.962Z,100660.81
2022-12-25T06:35:06.385Z,100660.88
2022-12-25T06:37:34.104Z,100649.00
2022-12-25T06:40:01.814Z,100646.72
2022-12-25T06:42:30.839Z,100640.91
2022-12-25T06:44:58.492Z,100638.34
2022-12-25T06:47:26.216Z,100636.91
2022-12-25T06:49:53.940Z,100633.06
2022-12-25T06:52:21.655Z,100609.75
2022-12-25T06:54:49.388Z,100617.25
2022-12-25T06:57:17.161Z,100610.22
2022-12-25T06:59:51.280Z,100610.31
2022-12-25T07:02:24.050Z,100608.22
2022-12-25T07:04:52.376Z,100598.72
2022-12-25T07:07:20.789Z,100595.88
2022-12-25T07:09:48.526Z,100621.44
2022-12-25T07:12:18.202Z,100618.63
2022-12-25T07:14:49.007Z,100618.81
2022-12-25T07:17:16.929Z,100614.31
2022-12-25T07:19:45.295Z,100613.53
2022-12-25T07:22:13.188Z,100615.41
2022-12-25T07:24:40.905Z,100614.81
2022-12-25T07:27:09.295Z,100619.75
2022-12-25T07:29:36.969Z,100615.63
2022-12-25T07:32:06.882Z,100620.22
2022-12-25T07:34:34.613Z,100622.78
2022-12-25T07:37:02.320Z,100620.13
2022-12-25T07:39:30.353Z,100602.78
2022-12-25T07:41:58.027Z,100609.88
2022-12-25T07:44:25.766Z,100607.50
2022-12-25T07:46:53.454Z,100617.69
2022-12-25T07:49:22.706Z,100602.00
2022-12-25T07:51:50.369Z,100619.75
2022-12-25T07:54:18.144Z,100623.44
2022-12-25T07:56:45.876Z,100626.25
2022-12-25T07:59:13.622Z,100619.56
2022-12-25T08:01:41.426Z,100625.63
2022-12-25T08:04:11.580Z,100628.59
2022-12-25T08:06:40.727Z,100621.25
2022-12-25T08:09:10.224Z,100629.44
2022-12-25T08:11:38.609Z,100605.91
2022-12-25T08:14:06.954Z,100607.88
2022-12-25T08:16:35.234Z,100603.38
2022-12-25T08:19:03.015Z,100618.56
2022-12-25T08:21:30.658Z,100622.69
2022-12-25T08:23:59.698Z,100630.19
2022-12-25T08:26:27.364Z,100635.25
2022-12-25T08:28:55.047Z,100633.94
2022-12-25T08:31:25.160Z,100635.41
2022-12-25T08:33:56.002Z,100640.34
2022-12-25T08:36:24.615Z,100647.28
2022-12-25T08:38:55.659Z,100636.28
2022-12-25T08:41:27.989Z,100641.81
2022-12-25T08:43:55.836Z,100629.75
2022-12-25T08:46:23.527Z,100647.56
2022-12-25T08:48:51.407Z,100653.00
2022-12-25T08:51:20.932Z,100658.94
2022-12-25T08:53:50.196Z,100655.59
2022-12-25T08:56:19.135Z,100661.34
2022-12-25T08:58:48.406Z,100649.91
2022-12-25T09:01:16.369Z,100657.19
2022-12-25T09:03:44.235Z,100634.78
2022-12-25T09:06:14.693Z,100633.56
2022-12-25T09:08:48.626Z,100629.31
2022-12-25T09:11:18.641Z,100642.56
2022-12-25T09:13:46.301Z,100631.44
2022-12-25T09:16:17.368Z,100632.63
2022-12-25T09:18:45.112Z,100621.84
2022-12-25T09:21:15.089Z,100602.09
2022-12-25T09:23:43.299Z,100601.56
2022-12-25T09:26:12.807Z,100597.22
2022-12-25T09:28:45.161Z,100607.53
2022-12-25T09:31:17.809Z,100617.13
2022-12-25T09:33:45.549Z,100621.03
2022-12-25T09:36:13.318Z,100629.13
2022-12-25T09:38:41.041Z,100630.06
2022-12-25T09:41:14.949Z,100633.63
2022-12-25T09:43:45.562Z,100630.75
2022-12-25T09:46:18.735Z,100633.66
2022-12-25T09:48:49.541Z,100631.00
2022-12-25T09:51:17.519Z,100633.50
2022-12-25T09:53:46.220Z,100618.75
2022-12-25T09:56:14.268Z,100613.22
2022-12-25T09:58:41.772Z,100599.47
2022-12-25T10:01:12.002Z,100599.69
2022-12-25T10:03:45.032Z,100588.63
2022-12-25T10:06:14.021Z,100583.03
2022-12-25T10:09:02.178Z,100598.09
2022-12-25T10:11:32.960Z,100596.41
2022-12-25T10:14:05.743Z,100601.56
2022-12-25T10:16:34.607Z,100601.16
2022-12-25T10:19:15.417Z,100611.88
2022-12-25T10:21:42.941Z,100613.06
2022-12-25T10:24:12.398Z,100615.41
2022-12-25T10:26:39.906Z,100618.47
2022-12-25T10:29:10.649Z,100608.53
2022-12-25T10:31:38.204Z,100597.50
2022-12-25T10:34:06.239Z,100590.78
2022-12-25T10:36:35.319Z,100603.06
2022-12-25T10:39:02.831Z,100605.50
2022-12-25T10:41:34.342Z,100603.50
2022-12-25T10:44:02.031Z,100599.25
2022-12-25T10:46:29.579Z,100597.50
2022-12-25T10:48:57.875Z,100587.94
2022-12-25T10:51:32.165Z,100586.03
2022-12-25T10:54:01.851Z,100576.69
2022-12-25T10:56:29.599Z,100586.81
2022-12-25T10:59:06.411Z,100566.56
2022-12-25T11:01:34.031Z,100547.00
2022-12-25T11:04:01.689Z,100549.81
2022-12-25T11:06:29.854Z,100550.00
2022-12-25T11:08:57.901Z,100539.09
2022-12-25T11:11:27.062Z,100528.16
2022-12-25T11:13:56.295Z,100507.63
2022-12-25T11:16:29.876Z,100518.66
2022-12-25T11:18:58.844Z,100511.09
2022-12-25T11:21:28.909Z,100525.06
2022-12-25T11:23:58.846Z,100514.75
2022-12-25T11:26:29.275Z,100503.78
2022-12-25T11:28:57.563Z,100490.75
2022-12-25T11:31:31.226Z,100474.91
2022-12-25T11:34:03.089Z,100485.69
2022-12-25T11:36:33.236Z,100489.38
2022-12-25T11:39:02.916Z,100498.16
2022-12-25T11:41:33.804Z,100477.56
2022-12-25T11:44:05.128Z,100480.59
2022-12-25T11:46:40.227Z,100477.56
2022-12-25T11:49:09.101Z,100481.25
2022-12-25T11:51:39.462Z,100476.19
2022-12-25T11:54:15.685Z,100480.94
2022-12-25T11:56:44.841Z,100474.19
2022-12-25T11:59:18.497Z,100472.47
2022-12-25T12:01:48.421Z,100477.22
2022-12-25T12:04:24.314Z,100480.44
2022-12-25T12:06:57.625Z,100465.16
2022-12-25T12:09:35.774Z,100445.84
2022-12-25T12:12:08.974Z,100439.25
2022-12-25T12:14:45.082Z,100433.56
2022-12-25T12:17:13.243Z,100434.53
2022-12-25T12:19:40.946Z,100422.59
2022-12-25T12:22:15.845Z,100418.09
2022-12-25T12:24:44.584Z,100432.53
2022-12-25T12:27:22.954Z,100411.69
2022-12-25T12:29:52.071Z,100407.38
2022-12-25T12:32:28.952Z,100398.47
2022-12-25T12:34:57.916Z,100408.09
2022-12-25T12:37:29.305Z,100398.47
2022-12-25T12:39:57.569Z,100391.28
2022-12-25T12:42:27.789Z,100389.91
2022-12-25T12:44:56.619Z,100392.56
2022-12-25T12:47:34.105Z,100387.41
2022-12-25T12:50:02.545Z,100377.97
2022-12-25T12:52:33.803Z,100387.81
2022-12-25T12:55:04.917Z,100376.91
2022-12-25T12:57:39.959Z,100380.72
2022-12-25T13:00:11.128Z,100379.38
2022-12-25T13:03:05.908Z,100378.88
2022-12-25T13:05:38.664Z,100379.66
2022-12-25T13:08:17.552Z,100363.00
2022-12-25T13:10:47.824Z,100375.19
2022-12-25T13:13:19.870Z,100375.00
2022-12-25T13:15:49.029Z,100371.31
2022-12-25T13:18:17.074Z,100355.09
2022-12-25T13:20:49.457Z,100356.28
2022-12-25T13:23:26.087Z,100364.22
2022-12-25T13:25:55.393Z,100342.84
2022-12-25T13:28:31.961Z,100342.25
2022-12-25T13:31:04.135Z,100345.97
2022-12-25T13:33:32.077Z,100352.00
2022-12-25T13:35:59.843Z,100327.47
2022-12-25T13:38:28.608Z,100332.97
2022-12-25T13:41:15.783Z,100332.75
2022-12-25T13:43:45.569Z,100335.09
2022-12-25T13:46:14.454Z,100337.19
2022-12-25T13:48:42.611Z,100338.44
2022-12-25T13:51:15.825Z,100328.47
2022-12-25T13:53:43.763Z,100317.47
2022-12-25T13:56:14.848Z,100330.81
2022-12-25T13:58:44.433Z,100329.56
2022-12-25T14:01:16.875Z,100330.19
2022-12-25T14:03:46.998Z,100322.81
2022-12-25T14:06:20.220Z,100322.78
2022-12-25T14:08:48.662Z,100326.06
2022-12-25T14:11:17.648Z,100333.38
2022-12-25T14:13:48.304Z,100341.38
2022-12-25T14:16:17.595Z,100343.31
2022-12-25T14:18:52.169Z,100335.19
2022-12-25T14:21:29.837Z,100337.59
2022-12-25T14:23:57.694Z,100325.97
2022-12-25T14:26:27.190Z,100304.16
2022-12-25T14:29:00.218Z,100311.56
2022-12-25T14:31:29.846Z,100303.78
2022-12-25T14:33:59.222Z,100297.50
2022-12-25T14:36:27.450Z,100308.41
2022-12-25T14:38:59.778Z,100297.19
2022-12-25T14:41:37.874Z,100297.19
2022-12-25T14:44:25.315Z,100292.56
2022-12-25T14:47:04.399Z,100286.28
2022-12-25T14:49:33.111Z,100274.56
2022-12-25T14:52:00.812Z,100274.78
2022-12-25T14:54:28.755Z,100277.41
2022-12-25T14:56:57.094Z,100285.44
2022-12-25T14:59:27.323Z,100275.44
2022-12-25T15:01:57.480Z,100268.09
2022-12-25T15:04:26.121Z,100263.56
2022-12-25T15:06:55.338Z,100260.28
2022-12-25T15:09:23.653Z,100274.16
2022-12-25T15:11:52.213Z,100278.38
2022-12-25T15:14:20.122Z,100282.59
2022-12-25T15:16:51.345Z,100281.56
2022-12-25T15:19:25.796Z,100281.09
2022-12-25T15:21:54.969Z,100285.78
2022-12-25T15:24:22.632Z,100287.72
2022-12-25T15:26:53.181Z,100280.50
2022-12-25T15:29:44.544Z,100275.97
2022-12-25T15:32:15.507Z,100271.19
2022-12-25T15:34:46.162Z,100263.06
2022-12-25T15:37:14.732Z,100272.00
2022-12-25T15:39:42.523Z,100267.56
2022-12-25T15:42:14.622Z,100259.31
2022-12-25T15:44:43.722Z,100261.84
2022-12-25T15:47:13.848Z,100273.28
2022-12-25T15:49:42.034Z,100277.47
2022-12-25T15:52:12.631Z,100283.69
2022-12-25T15:54:40.273Z,100272.41
2022-12-25T15:57:16.378Z,100271.97
2022-12-25T15:59:44.077Z,100260.13
2022-12-25T16:02:17.401Z,100256.31
2022-12-25T16:04:45.289Z,100260.25
2022-12-25T16:07:15.743Z,100241.31
2022-12-25T16:09:43.588Z,100249.84
2022-12-25T16:12:11.353Z,100243.09
2022-12-25T16:14:39.346Z,100245.94
2022-12-25T16:17:07.169Z,100247.28
2022-12-25T16:19:36.247Z,100252.09
2022-12-25T16:22:12.130Z,100244.31
2022-12-25T16:24:39.893Z,100241.16
2022-12-25T16:27:07.548Z,100240.56
2022-12-25T16:29:35.459Z,100237.06
2022-12-25T16:32:03.180Z,100236.50
2022-12-25T16:34:30.824Z,100249.16
2022-12-25T16:36:59.827Z,100247.13
2022-12-25T16:39:27.499Z,100255.66
2022-12-25T16:41:55.198Z,100249.16
2022-12-25T16:44:22.876Z,100262.56
2022-12-25T16:46:50.681Z,100248.28
2022-12-25T16:49:18.490Z,100238.09
2022-12-25T16:51:46.217Z,100238.16
2022-12-25T16:54:15.306Z,100227.22
2022-12-25T16:56:42.961Z,100222.47
2022-12-25T16:59:10.624Z,100220.06
2022-12-25T17:01:43.166Z,100220.16
2022-12-25T17:04:11.143Z,100210.81
2022-12-25T17:06:38.827Z,100215.50
2022-12-25T17:09:07.566Z,100210.97
2022-12-25T17:11:36.663Z,100218.97
2022-12-25T17:14:06.242Z,100221.94
2022-12-25T17:16:35.396Z,100214.63
2022-12-25T17:19:05.221Z,100216.44
2022-12-25T17:21:34.307Z,100218.41
2022-12-25T17:24:03.982Z,100211.97
2022-12-25T17:26:32.497Z,100210.59
2022-12-25T17:29:01.592Z,100205.94
2022-12-25T17:31:29.453Z,100199.97
2022-12-25T17:33:57.615Z,100199.72
2022-12-25T17:36:25.375Z,100188.53
2022-12-25T17:38:52.933Z,100177.91
2022-12-25T17:41:20.765Z,100181.09
2022-12-25T17:43:48.805Z,100177.72
2022-12-25T17:46:18.266Z,100176.25
2022-12-25T17:48:46.058Z,100176.47
2022-12-25T17:51:14.262Z,100177.94
2022-12-25T17:53:42.269Z,100182.13
2022-12-25T17:56:10.092Z,100166.13
2022-12-25T17:58:38.043Z,100158.88
2022-12-25T18:01:06.101Z,100165.56
2022-12-25T18:03:36.685Z,100159.72
2022-12-25T18:06:04.519Z,100174.75
2022-12-25T18:08:38.610Z,100179.00
2022-12-25T18:11:07.721Z,100186.41
2022-12-25T18:13:35.353Z,100179.59
2022-12-25T18:16:03.166Z,100184.66
2022-12-25T18:18:30.898Z,100188.38
2022-12-25T18:21:00.108Z,100181.88
2022-12-25T18:23:27.646Z,100190.56
2022-12-25T18:25:55.947Z,100194.81
2022-12-25T18:28:23.744Z,100199.84
2022-12-25T18:30:51.254Z,100198.06
2022-12-25T18:33:18.784Z,100211.53
2022-12-25T18:35:47.594Z,100189.38
2022-12-25T18:38:17.633Z,100177.09
2022-12-25T18:40:45.638Z,100178.41
2022-12-25T18:43:13.313Z,100171.09
2022-12-25T18:45:41.373Z,100165.78
2022-12-25T18:48:09.581Z,100172.78
2022-12-25T18:50:37.325Z,100166.25
2022-12-25T18:53:05.061Z,100162.19
2022-12-25T18:55:34.566Z,100160.28
2022-12-25T18:58:02.346Z,100155.22
2022-12-25T19:00:29.929Z,100165.41
2022-12-25T19:02:58.685Z,100164.91
2022-12-25T19:05:26.544Z,100153.31
2022-12-25T19:07:54.095Z,100157.19
2022-12-25T19:10:21.646Z,100161.75
2022-12-25T19:12:50.458Z,100165.34
2022-12-25T19:15:18.068Z,100161.63
2022-12-25T19:17:45.583Z,100170.63
2022-12-25T19:20:13.207Z,100159.94
2022-12-25T19:22:40.765Z,100160.47
2022-12-25T19:25:08.773Z,100154.59
2022-12-25T19:27:36.294Z,100157.69
2022-12-25T19:30:05.452Z,100163.38
2022-12-25T19:32:32.997Z,100165.13
2022-12-25T19:35:04.406Z,100170.50
2022-12-25T19:37:32.155Z,100173.50
2022-12-25T19:39:59.787Z,100177.84
2022-12-25T19:42:27.303Z,100171.59
2022-12-25T19:44:55.860Z,100167.81
2022-12-25T19:47:24.667Z,100169.06
2022-12-25T19:49:53.429Z,100166.28
2022-12-25T19:52:21.947Z,100167.78
2022-12-25T19:54:51.198Z,100170.13
2022-12-25T19:57:18.657Z,100176.19
2022-12-25T19:59:46.138Z,100164.91
2022-12-25T20:02:13.667Z,100171.25
2022-12-25T20:04:42.735Z,100176.94
2022-12-25T20:07:10.283Z,100174.91
2022-12-25T20:09:37.750Z,100167.56
2022-12-25T20:12:05.984Z,100171.34
2022-12-25T20:14:33.498Z,100166.63
2022-12-25T20:17:01.098Z,100172.94
2022-12-25T20:19:28.651Z,100187.28
2022-12-25T20:21:58.583Z,100171.19
2022-12-25T20:24:26.087Z,100179.97
2022-12-25T20:26:58.863Z,100172.06
2022-12-25T20:29:26.799Z,100179.22
2022-12-25T20:31:54.440Z,100184.28
2022-12-25T20:34:21.987Z,100182.47
2022-12-25T20:36:49.779Z,100183.19
2022-12-25T20:39:18.591Z,100167.59
2022-12-25T20:41:47.522Z,100166.34
2022-12-25T20:44:15.002Z,100166.03
2022-12-25T20:46:43.206Z,100171.19
2022-12-25T20:49:10.753Z,100184.75
2022-12-25T20:51:38.223Z,100186.22
2022-12-25T20:54:06.953Z,100185.47
2022-12-25T20:56:36.015Z,100181.75
2022-12-25T20:59:03.509Z,100180.31
2022-12-25T21:01:31.867Z,100190.81
2022-12-25T21:03:59.630Z,100195.88
2022-12-25T21:06:27.222Z,100188.13
2022-12-25T21:08:54.741Z,100193.19
2022-12-25T21:11:22.357Z,100205.66
2022-12-25T21:13:51.241Z,100202.28
2022-12-25T21:16:19.749Z,100202.34
2022-12-25T21:18:47.467Z,100199.63
2022-12-25T21:21:15.102Z,100190.09
2022-12-25T21:23:42.646Z,100192.66
2022-12-25T21:26:11.056Z,100199.06
2022-12-25T21:28:38.669Z,100200.34
2022-12-25T21:31:07.938Z,100182.06
2022-12-25T21:33:52.841Z,100192.91
2022-12-25T21:36:21.674Z,100203.28
2022-12-25T21:38:49.197Z,100197.16
2022-12-25T21:41:17.152Z,100196.09
2022-12-25T21:43:44.653Z,100193.03
2022-12-25T21:46:14.029Z,100201.13
2022-12-25T21:48:41.710Z,100192.25
2022-12-25T21:51:27.242Z,100202.94
2022-12-25T21:53:54.795Z,100204.00
2022-12-25T21:56:22.323Z,100213.63
2022-12-25T21:58:49.839Z,100204.78
2022-12-25T22:01:18.847Z,100184.31
2022-12-25T22:03:46.591Z,100191.13
2022-12-25T22:06:31.851Z,100196.97
2022-12-25T22:08:59.415Z,100207.72
2022-12-25T22:11:44.907Z,100195.41
2022-12-25T22:14:50.106Z,100196.31
2022-12-25T22:17:40.711Z,100196.56
2022-12-25T22:20:09.839Z,100203.22
2022-12-25T22:22:37.605Z,100214.22
2022-12-25T22:25:06.003Z,100227.41
2022-12-25T22:27:34.127Z,100226.56
2022-12-25T22:30:01.692Z,100236.88
2022-12-25T22:32:30.557Z,100240.25
2022-12-25T22:34:58.216Z,100235.22
2022-12-25T22:37:25.687Z,100242.16
2022-12-25T22:39:53.227Z,100226.13
2022-12-25T22:42:20.939Z,100221.81
2022-12-25T22:44:48.482Z,100228.06
2022-12-25T22:47:16.355Z,100233.97
2022-12-25T22:49:45.205Z,100230.28
2022-12-25T22:52:12.691Z,100239.97
2022-12-25T22:54:40.320Z,100239.41
2022-12-25T22:57:07.843Z,100245.38
2022-12-25T22:59:35.517Z,100237.13
2022-12-25T23:02:03.149Z,100221.72
2022-12-25T23:04:30.799Z,100231.88
2022-12-25T23:06:59.607Z,100234.38
2022-12-25T23:09:28.188Z,100218.00
2022-12-25T23:11:56.389Z,100214.91
2022-12-25T23:14:46.717Z,100216.84
2022-12-25T23:17:28.275Z,100234.06
2022-12-25T23:20:14.036Z,100230.47
2022-12-25T23:23:00.859Z,100221.50
2022-12-25T23:25:46.301Z,100223.41
2022-12-25T23:28:13.847Z,100216.63
2022-12-25T23:30:40.381Z,100223.09
2022-12-25T23:33:08.251Z,100219.34
2022-12-25T23:35:35.730Z,100212.50
2022-12-25T23:38:04.590Z,100219.34
2022-12-25T23:40:32.070Z,100221.59
2022-12-25T23:42:59.556Z,100223.06
2022-12-25T23:45:27.087Z,100219.97
2022-12-25T23:47:54.621Z,100214.97
2022-12-25T23:50:22.108Z,100211.94
2022-12-25T23:52:49.592Z,100191.97
2022-12-25T23:55:18.546Z,100190.09
2022-12-25T23:57:46.019Z,100178.72
